MST,Max TemperatureF,Mean TemperatureF,Min TemperatureF,Max Dew PointF,MeanDew PointF,Min DewpointF,Max Humidity, Mean Humidity, Min Humidity, Max Sea Level PressureIn, Mean Sea Level PressureIn, Min Sea Level PressureIn, Max VisibilityMiles, Mean VisibilityMiles, Min VisibilityMiles, Max Wind SpeedMPH, Mean Wind SpeedMPH, Max Gust SpeedMPH,PrecipitationIn, CloudCover, Events, WindDirDegrees
2011-11-1,46,35,23,33,27,21,89,65,38,30.38,30.15,29.95,10,10,10,18,9,23,0.00,2,,312
2011-11-2,45,30,15,22,14,11,84,61,27,30.51,30.43,30.29,10,10,10,18,7,24,0.00,0,,273
2011-11-3,58,36,14,18,11,-2,68,42,9,30.27,30.04,29.80,10,10,5,26,11,36,0.00,0,,152
2011-11-4,60,42,24,26,22,15,81,51,24,29.79,29.69,29.55,10,10,10,13,6,15,0.00,0,,139
2011-11-5,47,39,30,30,28,26,85,67,53,29.52,29.42,29.33,10,10,8,26,10,32,0.00,3,,309
2011-11-6,39,32,24,27,19,8,85,65,29,30.01,29.65,29.42,10,10,9,41,23,48,T,4,,281
2011-11-7,45,28,10,16,11,5,80,57,25,30.25,30.17,30.07,10,10,10,16,5,21,0.00,0,,272
2011-11-8,47,28,8,20,13,3,81,61,26,30.31,30.21,30.15,10,10,10,24,8,30,0.00,0,,292
2011-11-9,43,28,12,19,12,5,88,59,22,30.45,30.40,30.33,10,10,10,28,10,35,0.00,0,,307
2011-11-10,53,29,5,19,12,2,80,52,22,30.36,30.05,29.74,10,10,9,17,5,22,0.00,0,,247
2011-11-11,60,40,19,17,12,7,54,37,14,29.76,29.62,29.44,10,10,10,20,9,25,0.00,0,,280
2011-11-12,58,40,21,24,17,9,78,45,20,29.41,29.34,29.30,10,10,10,22,7,26,0.00,2,,298
2011-11-13,51,39,26,29,24,17,88,62,27,29.44,29.36,29.29,10,10,10,30,14,38,0.00,2,,267
2011-11-14,45,33,21,27,22,17,96,71,36,29.60,29.52,29.45,10,10,10,22,12,28,0.00,1,,271
2011-11-15,35,22,9,25,13,5,88,64,32,30.12,29.91,29.59,10,10,10,36,17,44,T,1,,290
2011-11-16,34,16,-2,9,4,-3,83,61,31,30.31,30.24,30.12,10,10,10,25,9,33,0.00,1,,298
2011-11-17,38,20,1,19,4,-4,79,48,22,30.19,29.87,29.61,10,10,10,21,6,26,0.00,3,,164
2011-11-18,41,25,9,19,12,3,73,54,30,29.96,29.78,29.62,10,10,10,18,12,24,0.00,7,,323
2011-11-19,12,6,0,5,3,-3,95,77,67,30.29,30.07,29.95,10,4,1,17,9,21,T,7,Snow,48
2011-11-20,22,10,-3,12,4,-6,95,84,68,30.27,30.15,30.05,10,6,1,15,6,18,T,5,Snow,162
2011-11-21,34,16,-2,23,12,-5,92,80,64,30.20,30.12,30.03,10,10,10,12,3,14,0.00,0,,157
2011-11-22,50,33,15,27,23,13,92,69,39,30.06,30.01,29.94,10,10,10,12,4,14,0.00,0,,251
2011-11-23,62,44,26,29,26,22,81,53,25,30.01,29.88,29.74,10,10,10,17,5,22,0.00,0,,224
2011-11-24,57,44,30,30,26,24,78,55,33,29.75,29.72,29.68,10,10,10,10,4,14,0.00,0,,273
2011-11-25,54,38,21,30,24,19,88,63,38,30.05,29.77,29.63,10,10,10,30,10,41,0.00,2,,298
2011-11-26,38,25,11,23,9,1,69,48,23,30.53,30.39,30.08,10,10,10,35,18,46,T,0,,309
2011-11-27,55,33,11,23,16,5,67,48,26,30.41,30.17,29.91,10,10,10,12,5,16,0.00,0,,240
2011-11-28,48,29,10,30,20,6,84,60,37,30.46,30.23,29.91,10,10,10,22,6,28,0.00,0,,315
2011-11-29,49,31,12,27,22,10,92,66,39,30.40,30.22,29.98,10,10,10,17,5,22,0.00,1,,224
2011-11-30,41,33,25,30,26,21,92,82,55,30.46,30.09,29.90,10,4,0,24,9,30,0.06,7,Fog-Snow,42